SBCP/CAW METAR and TAF weather

Enter ICAO airport designator
Station Type Date Time Source
SBCP METAR 2020/07/08 21:00 UTC NOAA

SBCP 082100Z 09012KT CAVOK 24/19 Q1014


Station Type Date Time Source
SBCP Decoded METAR 2020/07/08 21:00 UTC NOAA

Campos, Brazil (SBCP) 21-45S 041-20W 11M
Jul 08, 2020 - 05:00 PM EDT / 2020.07.08 2100 UTC
Wind: from the E (090 degrees) at 14 MPH (12 KT):0
Visibility: greater than 7 mile(s):0
Temperature: 75 F (24 C)
Dew Point: 66 F (19 C)
Relative Humidity: 73%
Pressure (altimeter): 29.94 in. Hg (1014 hPa)
ob: SBCP 082100Z 09012KT CAVOK 24/19 Q1014
cycle: 21

Station Type Date Time Source
SBCP TAF 2020/07/09 06:15 UTC NOAA

TAF SBCP 090300Z 0906/0918 02005KT CAVOK TN17/0909Z TX28/0917Z
BECMG 0906/0908 34005KT
BECMG 0912/0914 29007KT
BECMG 0915/0917 18010KT 9999 FEW025
RMK PDL

Example: see airport list